sensor_id;sensor_type;location;lat;lon;timestamp;P1;durP1;ratioP1;P2;durP2;ratioP2
18857;SDS011;9558;50.178;8.370;2023-09-19T00:02:07;2.45;;;1.15;;
18857;SDS011;9558;50.178;8.370;2023-09-19T00:04:54;2.35;;;1.20;;
18857;SDS011;9558;50.178;8.370;2023-09-19T00:07:41;7.82;;;1.52;;
18857;SDS011;9558;50.178;8.370;2023-09-19T00:10:28;2.35;;;1.10;;
18857;SDS011;9558;50.178;8.370;2023-09-19T00:13:16;3.67;;;1.35;;
18857;SDS011;9558;50.178;8.370;2023-09-19T00:16:08;6.55;;;1.65;;
18857;SDS011;9558;50.178;8.370;2023-09-19T00:18:57;2.63;;;1.40;;
18857;SDS011;9558;50.178;8.370;2023-09-19T00:21:45;3.15;;;1.42;;
18857;SDS011;9558;50.178;8.370;2023-09-19T00:24:32;3.53;;;1.33;;
18857;SDS011;9558;50.178;8.370;2023-09-19T00:27:19;1.60;;;1.50;;
18857;SDS011;9558;50.178;8.370;2023-09-19T00:30:07;6.45;;;1.80;;
18857;SDS011;9558;50.178;8.370;2023-09-19T00:32:59;2.00;;;1.60;;
18857;SDS011;9558;50.178;8.370;2023-09-19T00:35:49;3.45;;;1.70;;
18857;SDS011;9558;50.178;8.370;2023-09-19T00:38:37;4.18;;;1.63;;
18857;SDS011;9558;50.178;8.370;2023-09-19T00:41:24;2.28;;;1.63;;
18857;SDS011;9558;50.178;8.370;2023-09-19T00:44:12;2.10;;;1.60;;
18857;SDS011;9558;50.178;8.370;2023-09-19T00:46:59;2.70;;;1.52;;
18857;SDS011;9558;50.178;8.370;2023-09-19T00:49:47;3.55;;;1.67;;
18857;SDS011;9558;50.178;8.370;2023-09-19T00:52:39;2.20;;;1.30;;
18857;SDS011;9558;50.178;8.370;2023-09-19T00:55:27;2.20;;;1.60;;
18857;SDS011;9558;50.178;8.370;2023-09-19T00:58:18;4.03;;;1.50;;
18857;SDS011;9558;50.178;8.370;2023-09-19T01:01:05;1.75;;;1.40;;
18857;SDS011;9558;50.178;8.370;2023-09-19T01:03:53;2.00;;;1.27;;
18857;SDS011;9558;50.178;8.370;2023-09-19T01:06:40;2.47;;;1.50;;
18857;SDS011;9558;50.178;8.370;2023-09-19T01:09:28;6.63;;;1.75;;
18857;SDS011;9558;50.178;8.370;2023-09-19T01:12:16;2.30;;;1.58;;
18857;SDS011;9558;50.178;8.370;2023-09-19T01:15:11;1.60;;;1.50;;
18857;SDS011;9558;50.178;8.370;2023-09-19T01:18:07;3.45;;;1.42;;
18857;SDS011;9558;50.178;8.370;2023-09-19T01:21:05;1.65;;;1.30;;
18857;SDS011;9558;50.178;8.370;2023-09-19T01:24:07;3.05;;;1.20;;
18857;SDS011;9558;50.178;8.370;2023-09-19T01:27:17;1.13;;;1.00;;
18857;SDS011;9558;50.178;8.370;2023-09-19T01:30:24;2.28;;;1.17;;
18857;SDS011;9558;50.178;8.370;2023-09-19T01:33:14;2.20;;;1.40;;
18857;SDS011;9558;50.178;8.370;2023-09-19T01:36:04;1.38;;;1.00;;
18857;SDS011;9558;50.178;8.370;2023-09-19T01:38:52;2.10;;;1.10;;
18857;SDS011;9558;50.178;8.370;2023-09-19T01:41:56;1.90;;;1.00;;
18857;SDS011;9558;50.178;8.370;2023-09-19T01:44:51;1.98;;;0.95;;
18857;SDS011;9558;50.178;8.370;2023-09-19T01:47:48;4.80;;;1.23;;
18857;SDS011;9558;50.178;8.370;2023-09-19T01:50:41;3.55;;;0.90;;
18857;SDS011;9558;50.178;8.370;2023-09-19T01:53:33;1.67;;;1.17;;
18857;SDS011;9558;50.178;8.370;2023-09-19T01:56:28;1.30;;;1.10;;
18857;SDS011;9558;50.178;8.370;2023-09-19T01:59:21;1.85;;;1.38;;
18857;SDS011;9558;50.178;8.370;2023-09-19T02:04:59;1.17;;;0.75;;
18857;SDS011;9558;50.178;8.370;2023-09-19T02:07:46;2.30;;;0.80;;
18857;SDS011;9558;50.178;8.370;2023-09-19T02:10:33;2.30;;;0.95;;
18857;SDS011;9558;50.178;8.370;2023-09-19T02:13:20;2.63;;;0.80;;
18857;SDS011;9558;50.178;8.370;2023-09-19T02:16:10;1.27;;;1.00;;
18857;SDS011;9558;50.178;8.370;2023-09-19T02:18:57;3.90;;;1.20;;
18857;SDS011;9558;50.178;8.370;2023-09-19T02:21:47;4.47;;;1.00;;
18857;SDS011;9558;50.178;8.370;2023-09-19T02:24:34;4.65;;;1.02;;
18857;SDS011;9558;50.178;8.370;2023-09-19T02:27:22;4.78;;;1.10;;
18857;SDS011;9558;50.178;8.370;2023-09-19T02:30:09;2.00;;;0.90;;
18857;SDS011;9558;50.178;8.370;2023-09-19T02:32:56;1.02;;;0.82;;
18857;SDS011;9558;50.178;8.370;2023-09-19T02:35:43;1.50;;;0.98;;
18857;SDS011;9558;50.178;8.370;2023-09-19T02:38:32;2.47;;;1.00;;
18857;SDS011;9558;50.178;8.370;2023-09-19T02:41:20;1.55;;;1.00;;
18857;SDS011;9558;50.178;8.370;2023-09-19T02:44:07;3.38;;;1.27;;
18857;SDS011;9558;50.178;8.370;2023-09-19T02:46:54;5.20;;;1.33;;
18857;SDS011;9558;50.178;8.370;2023-09-19T02:49:42;5.47;;;1.40;;
18857;SDS011;9558;50.178;8.370;2023-09-19T02:52:29;5.22;;;1.25;;
18857;SDS011;9558;50.178;8.370;2023-09-19T02:55:18;2.08;;;1.20;;
18857;SDS011;9558;50.178;8.370;2023-09-19T02:58:07;5.35;;;1.10;;
18857;SDS011;9558;50.178;8.370;2023-09-19T03:00:56;1.98;;;0.90;;
18857;SDS011;9558;50.178;8.370;2023-09-19T03:03:43;2.20;;;0.82;;
18857;SDS011;9558;50.178;8.370;2023-09-19T03:06:30;2.13;;;1.08;;
18857;SDS011;9558;50.178;8.370;2023-09-19T03:09:18;3.10;;;1.02;;
18857;SDS011;9558;50.178;8.370;2023-09-19T03:12:06;1.52;;;0.80;;
18857;SDS011;9558;50.178;8.370;2023-09-19T03:14:53;2.42;;;0.82;;
18857;SDS011;9558;50.178;8.370;2023-09-19T03:17:42;0.80;;;0.75;;
18857;SDS011;9558;50.178;8.370;2023-09-19T03:20:29;2.22;;;1.02;;
18857;SDS011;9558;50.178;8.370;2023-09-19T03:23:16;4.30;;;0.80;;
18857;SDS011;9558;50.178;8.370;2023-09-19T03:26:03;1.02;;;0.70;;
18857;SDS011;9558;50.178;8.370;2023-09-19T03:28:52;5.97;;;1.00;;
18857;SDS011;9558;50.178;8.370;2023-09-19T03:31:39;0.98;;;0.60;;
18857;SDS011;9558;50.178;8.370;2023-09-19T03:34:26;1.95;;;0.80;;
18857;SDS011;9558;50.178;8.370;2023-09-19T03:37:13;3.88;;;0.70;;
18857;SDS011;9558;50.178;8.370;2023-09-19T03:40:00;4.05;;;1.08;;
18857;SDS011;9558;50.178;8.370;2023-09-19T03:42:50;2.50;;;0.80;;
18857;SDS011;9558;50.178;8.370;2023-09-19T03:45:38;6.50;;;1.30;;
18857;SDS011;9558;50.178;8.370;2023-09-19T03:48:25;3.78;;;1.38;;
18857;SDS011;9558;50.178;8.370;2023-09-19T03:51:12;2.42;;;1.48;;
18857;SDS011;9558;50.178;8.370;2023-09-19T03:53:59;3.10;;;1.00;;
18857;SDS011;9558;50.178;8.370;2023-09-19T03:56:45;1.95;;;0.85;;
18857;SDS011;9558;50.178;8.370;2023-09-19T03:59:32;3.42;;;1.30;;
18857;SDS011;9558;50.178;8.370;2023-09-19T04:02:22;4.22;;;1.20;;
18857;SDS011;9558;50.178;8.370;2023-09-19T04:05:18;5.78;;;0.93;;
18857;SDS011;9558;50.178;8.370;2023-09-19T04:08:05;4.10;;;1.20;;
18857;SDS011;9558;50.178;8.370;2023-09-19T04:10:52;29.15;;;2.03;;
18857;SDS011;9558;50.178;8.370;2023-09-19T04:13:38;2.15;;;1.05;;
18857;SDS011;9558;50.178;8.370;2023-09-19T04:16:25;2.53;;;1.17;;
18857;SDS011;9558;50.178;8.370;2023-09-19T04:19:13;1.42;;;0.82;;
18857;SDS011;9558;50.178;8.370;2023-09-19T04:22:00;2.63;;;0.98;;
18857;SDS011;9558;50.178;8.370;2023-09-19T04:24:47;4.72;;;0.98;;
18857;SDS011;9558;50.178;8.370;2023-09-19T04:27:34;1.42;;;1.05;;
18857;SDS011;9558;50.178;8.370;2023-09-19T04:30:21;0.90;;;0.85;;
18857;SDS011;9558;50.178;8.370;2023-09-19T04:33:08;1.40;;;1.08;;
18857;SDS011;9558;50.178;8.370;2023-09-19T04:35:56;3.53;;;1.20;;
18857;SDS011;9558;50.178;8.370;2023-09-19T04:38:43;2.67;;;1.45;;
18857;SDS011;9558;50.178;8.370;2023-09-19T04:41:30;2.25;;;1.02;;
18857;SDS011;9558;50.178;8.370;2023-09-19T04:44:17;6.95;;;1.27;;
18857;SDS011;9558;50.178;8.370;2023-09-19T04:47:04;1.63;;;0.88;;
18857;SDS011;9558;50.178;8.370;2023-09-19T04:49:51;2.10;;;1.60;;
18857;SDS011;9558;50.178;8.370;2023-09-19T04:52:40;2.28;;;0.95;;
18857;SDS011;9558;50.178;8.370;2023-09-19T04:55:29;3.55;;;0.90;;
18857;SDS011;9558;50.178;8.370;2023-09-19T04:58:20;1.13;;;0.70;;
18857;SDS011;9558;50.178;8.370;2023-09-19T05:01:09;2.85;;;0.82;;
18857;SDS011;9558;50.178;8.370;2023-09-19T05:03:57;1.27;;;0.93;;
18857;SDS011;9558;50.178;8.370;2023-09-19T05:06:44;3.42;;;0.80;;
18857;SDS011;9558;50.178;8.370;2023-09-19T05:09:32;2.65;;;0.90;;
18857;SDS011;9558;50.178;8.370;2023-09-19T05:12:19;1.88;;;0.68;;
18857;SDS011;9558;50.178;8.370;2023-09-19T05:15:07;2.83;;;0.90;;
18857;SDS011;9558;50.178;8.370;2023-09-19T05:17:54;1.55;;;0.85;;
18857;SDS011;9558;50.178;8.370;2023-09-19T05:20:41;4.15;;;0.98;;
18857;SDS011;9558;50.178;8.370;2023-09-19T05:23:29;3.50;;;1.10;;
18857;SDS011;9558;50.178;8.370;2023-09-19T05:26:18;5.82;;;1.27;;
18857;SDS011;9558;50.178;8.370;2023-09-19T05:29:05;1.67;;;0.98;;
18857;SDS011;9558;50.178;8.370;2023-09-19T05:31:53;6.53;;;1.05;;
18857;SDS011;9558;50.178;8.370;2023-09-19T05:34:40;2.85;;;1.20;;
18857;SDS011;9558;50.178;8.370;2023-09-19T05:37:27;3.97;;;0.80;;
18857;SDS011;9558;50.178;8.370;2023-09-19T05:40:15;1.65;;;0.80;;
18857;SDS011;9558;50.178;8.370;2023-09-19T05:43:03;4.65;;;1.10;;
18857;SDS011;9558;50.178;8.370;2023-09-19T05:45:51;1.45;;;0.90;;
18857;SDS011;9558;50.178;8.370;2023-09-19T05:48:38;3.38;;;0.80;;
18857;SDS011;9558;50.178;8.370;2023-09-19T05:51:26;1.52;;;1.00;;
18857;SDS011;9558;50.178;8.370;2023-09-19T05:54:14;3.60;;;1.15;;
18857;SDS011;9558;50.178;8.370;2023-09-19T05:57:01;3.53;;;1.10;;
18857;SDS011;9558;50.178;8.370;2023-09-19T05:59:49;6.55;;;1.15;;
18857;SDS011;9558;50.178;8.370;2023-09-19T06:02:36;8.80;;;2.03;;
18857;SDS011;9558;50.178;8.370;2023-09-19T06:05:24;3.88;;;1.75;;
18857;SDS011;9558;50.178;8.370;2023-09-19T06:08:13;3.85;;;1.50;;
18857;SDS011;9558;50.178;8.370;2023-09-19T06:11:00;3.28;;;1.98;;
18857;SDS011;9558;50.178;8.370;2023-09-19T06:13:47;3.00;;;2.00;;
18857;SDS011;9558;50.178;8.370;2023-09-19T06:16:36;6.22;;;1.83;;
18857;SDS011;9558;50.178;8.370;2023-09-19T06:19:23;3.08;;;1.88;;
18857;SDS011;9558;50.178;8.370;2023-09-19T06:22:11;4.13;;;2.00;;
18857;SDS011;9558;50.178;8.370;2023-09-19T06:25:01;2.05;;;1.30;;
18857;SDS011;9558;50.178;8.370;2023-09-19T06:27:49;5.70;;;2.47;;
18857;SDS011;9558;50.178;8.370;2023-09-19T06:30:39;7.07;;;1.92;;
18857;SDS011;9558;50.178;8.370;2023-09-19T06:33:28;3.15;;;1.42;;
18857;SDS011;9558;50.178;8.370;2023-09-19T06:36:16;3.67;;;1.85;;
18857;SDS011;9558;50.178;8.370;2023-09-19T06:39:04;4.15;;;1.50;;
18857;SDS011;9558;50.178;8.370;2023-09-19T06:41:52;4.00;;;1.60;;
18857;SDS011;9558;50.178;8.370;2023-09-19T06:44:47;4.65;;;1.90;;
18857;SDS011;9558;50.178;8.370;2023-09-19T06:47:33;2.67;;;1.67;;
18857;SDS011;9558;50.178;8.370;2023-09-19T06:50:22;2.50;;;1.70;;
18857;SDS011;9558;50.178;8.370;2023-09-19T06:53:10;3.10;;;1.50;;
18857;SDS011;9558;50.178;8.370;2023-09-19T06:55:57;2.55;;;1.35;;
18857;SDS011;9558;50.178;8.370;2023-09-19T06:58:44;2.00;;;1.45;;
18857;SDS011;9558;50.178;8.370;2023-09-19T07:01:31;4.38;;;1.42;;
18857;SDS011;9558;50.178;8.370;2023-09-19T07:04:19;3.47;;;1.20;;
18857;SDS011;9558;50.178;8.370;2023-09-19T07:07:07;1.88;;;1.20;;
18857;SDS011;9558;50.178;8.370;2023-09-19T07:09:55;3.35;;;1.20;;
18857;SDS011;9558;50.178;8.370;2023-09-19T07:12:43;4.35;;;1.25;;
18857;SDS011;9558;50.178;8.370;2023-09-19T07:15:31;1.50;;;1.23;;
18857;SDS011;9558;50.178;8.370;2023-09-19T07:18:21;4.88;;;1.75;;
18857;SDS011;9558;50.178;8.370;2023-09-19T07:21:08;4.53;;;1.02;;
18857;SDS011;9558;50.178;8.370;2023-09-19T07:23:57;8.93;;;1.42;;
18857;SDS011;9558;50.178;8.370;2023-09-19T07:26:46;2.17;;;1.35;;
18857;SDS011;9558;50.178;8.370;2023-09-19T07:29:33;4.53;;;1.02;;
18857;SDS011;9558;50.178;8.370;2023-09-19T07:32:20;3.42;;;1.27;;
18857;SDS011;9558;50.178;8.370;2023-09-19T07:35:07;6.40;;;1.63;;
18857;SDS011;9558;50.178;8.370;2023-09-19T07:37:55;3.58;;;0.85;;
18857;SDS011;9558;50.178;8.370;2023-09-19T07:40:45;2.30;;;1.10;;
18857;SDS011;9558;50.178;8.370;2023-09-19T07:43:32;6.65;;;1.35;;
18857;SDS011;9558;50.178;8.370;2023-09-19T07:46:19;2.65;;;1.00;;
18857;SDS011;9558;50.178;8.370;2023-09-19T07:49:06;7.15;;;1.55;;
18857;SDS011;9558;50.178;8.370;2023-09-19T07:51:53;1.65;;;0.85;;
18857;SDS011;9558;50.178;8.370;2023-09-19T07:54:42;1.52;;;1.05;;
18857;SDS011;9558;50.178;8.370;2023-09-19T07:57:31;5.63;;;0.90;;
18857;SDS011;9558;50.178;8.370;2023-09-19T08:00:20;5.75;;;1.38;;
18857;SDS011;9558;50.178;8.370;2023-09-19T08:03:07;2.67;;;1.38;;
18857;SDS011;9558;50.178;8.370;2023-09-19T08:05:55;2.78;;;1.15;;
18857;SDS011;9558;50.178;8.370;2023-09-19T08:08:43;1.55;;;0.80;;
18857;SDS011;9558;50.178;8.370;2023-09-19T08:11:30;2.15;;;1.02;;
18857;SDS011;9558;50.178;8.370;2023-09-19T08:14:19;3.30;;;1.17;;
18857;SDS011;9558;50.178;8.370;2023-09-19T08:17:08;2.78;;;1.00;;
18857;SDS011;9558;50.178;8.370;2023-09-19T08:19:55;5.60;;;1.35;;
18857;SDS011;9558;50.178;8.370;2023-09-19T08:22:48;6.80;;;1.20;;
18857;SDS011;9558;50.178;8.370;2023-09-19T08:25:37;2.33;;;0.85;;
18857;SDS011;9558;50.178;8.370;2023-09-19T08:28:25;3.22;;;0.80;;
18857;SDS011;9558;50.178;8.370;2023-09-19T08:31:16;2.25;;;0.70;;
18857;SDS011;9558;50.178;8.370;2023-09-19T08:34:03;2.00;;;0.80;;
18857;SDS011;9558;50.178;8.370;2023-09-19T08:36:50;1.70;;;0.90;;
18857;SDS011;9558;50.178;8.370;2023-09-19T08:39:38;3.25;;;0.90;;
18857;SDS011;9558;50.178;8.370;2023-09-19T08:42:25;5.50;;;1.02;;
18857;SDS011;9558;50.178;8.370;2023-09-19T08:45:12;4.38;;;0.93;;
18857;SDS011;9558;50.178;8.370;2023-09-19T08:48:03;9.88;;;1.08;;
18857;SDS011;9558;50.178;8.370;2023-09-19T08:51:03;8.00;;;1.10;;
18857;SDS011;9558;50.178;8.370;2023-09-19T08:54:20;3.03;;;0.73;;
18857;SDS011;9558;50.178;8.370;2023-09-19T08:57:14;3.55;;;0.77;;
18857;SDS011;9558;50.178;8.370;2023-09-19T09:00:07;4.72;;;0.82;;
18857;SDS011;9558;50.178;8.370;2023-09-19T09:02:57;6.95;;;1.10;;
18857;SDS011;9558;50.178;8.370;2023-09-19T09:05:47;4.20;;;0.73;;
18857;SDS011;9558;50.178;8.370;2023-09-19T09:08:36;2.53;;;0.70;;
18857;SDS011;9558;50.178;8.370;2023-09-19T09:11:26;4.13;;;0.90;;
18857;SDS011;9558;50.178;8.370;2023-09-19T09:14:13;2.22;;;0.73;;
18857;SDS011;9558;50.178;8.370;2023-09-19T09:17:00;3.53;;;0.80;;
18857;SDS011;9558;50.178;8.370;2023-09-19T09:19:48;2.05;;;0.45;;
18857;SDS011;9558;50.178;8.370;2023-09-19T09:22:37;5.25;;;0.70;;
18857;SDS011;9558;50.178;8.370;2023-09-19T09:28:44;4.78;;;0.90;;
18857;SDS011;9558;50.178;8.370;2023-09-19T09:31:33;4.18;;;0.85;;
18857;SDS011;9558;50.178;8.370;2023-09-19T09:34:19;3.65;;;0.95;;
18857;SDS011;9558;50.178;8.370;2023-09-19T09:37:06;2.95;;;0.90;;
18857;SDS011;9558;50.178;8.370;2023-09-19T09:40:02;5.88;;;1.10;;
18857;SDS011;9558;50.178;8.370;2023-09-19T09:43:07;2.65;;;0.80;;
18857;SDS011;9558;50.178;8.370;2023-09-19T09:46:13;2.65;;;0.73;;
18857;SDS011;9558;50.178;8.370;2023-09-19T09:49:22;3.92;;;0.68;;
18857;SDS011;9558;50.178;8.370;2023-09-19T09:52:12;4.00;;;1.00;;
18857;SDS011;9558;50.178;8.370;2023-09-19T09:55:03;5.65;;;0.82;;
18857;SDS011;9558;50.178;8.370;2023-09-19T09:58:02;2.08;;;0.75;;
18857;SDS011;9558;50.178;8.370;2023-09-19T10:01:04;2.50;;;0.98;;
18857;SDS011;9558;50.178;8.370;2023-09-19T10:03:56;2.72;;;0.70;;
18857;SDS011;9558;50.178;8.370;2023-09-19T10:06:45;1.48;;;0.60;;
18857;SDS011;9558;50.178;8.370;2023-09-19T10:09:44;6.38;;;1.25;;
18857;SDS011;9558;50.178;8.370;2023-09-19T10:12:34;4.30;;;0.88;;
18857;SDS011;9558;50.178;8.370;2023-09-19T10:15:23;2.78;;;0.88;;
18857;SDS011;9558;50.178;8.370;2023-09-19T10:18:18;4.07;;;0.73;;
18857;SDS011;9558;50.178;8.370;2023-09-19T10:21:08;3.17;;;1.00;;
18857;SDS011;9558;50.178;8.370;2023-09-19T10:23:56;5.10;;;0.90;;
18857;SDS011;9558;50.178;8.370;2023-09-19T10:26:44;3.13;;;0.93;;
18857;SDS011;9558;50.178;8.370;2023-09-19T10:29:33;2.47;;;0.80;;
18857;SDS011;9558;50.178;8.370;2023-09-19T10:32:22;4.40;;;0.95;;
18857;SDS011;9558;50.178;8.370;2023-09-19T10:35:10;2.42;;;0.98;;
18857;SDS011;9558;50.178;8.370;2023-09-19T10:37:59;3.33;;;0.82;;
18857;SDS011;9558;50.178;8.370;2023-09-19T10:40:48;5.85;;;0.98;;
18857;SDS011;9558;50.178;8.370;2023-09-19T10:43:37;4.80;;;0.85;;
18857;SDS011;9558;50.178;8.370;2023-09-19T10:46:32;6.32;;;1.13;;
18857;SDS011;9558;50.178;8.370;2023-09-19T10:49:19;3.22;;;0.77;;
18857;SDS011;9558;50.178;8.370;2023-09-19T10:52:07;3.70;;;0.70;;
18857;SDS011;9558;50.178;8.370;2023-09-19T10:54:57;1.55;;;0.88;;
18857;SDS011;9558;50.178;8.370;2023-09-19T10:57:46;3.90;;;1.33;;
18857;SDS011;9558;50.178;8.370;2023-09-19T11:00:51;2.00;;;0.57;;
18857;SDS011;9558;50.178;8.370;2023-09-19T11:03:42;4.03;;;0.98;;
18857;SDS011;9558;50.178;8.370;2023-09-19T11:06:29;6.18;;;1.13;;
18857;SDS011;9558;50.178;8.370;2023-09-19T11:09:16;6.07;;;0.82;;
18857;SDS011;9558;50.178;8.370;2023-09-19T11:12:07;3.58;;;0.90;;
18857;SDS011;9558;50.178;8.370;2023-09-19T11:14:54;3.30;;;0.77;;
18857;SDS011;9558;50.178;8.370;2023-09-19T11:17:41;0.95;;;0.38;;
18857;SDS011;9558;50.178;8.370;2023-09-19T11:20:29;3.33;;;0.82;;
18857;SDS011;9558;50.178;8.370;2023-09-19T11:23:28;5.72;;;0.70;;
18857;SDS011;9558;50.178;8.370;2023-09-19T11:26:32;3.33;;;0.52;;
18857;SDS011;9558;50.178;8.370;2023-09-19T11:29:29;10.05;;;0.77;;
18857;SDS011;9558;50.178;8.370;2023-09-19T11:32:17;5.57;;;0.90;;
18857;SDS011;9558;50.178;8.370;2023-09-19T11:39:00;5.45;;;0.90;;
18857;SDS011;9558;50.178;8.370;2023-09-19T11:42:00;4.97;;;0.90;;
18857;SDS011;9558;50.178;8.370;2023-09-19T11:44:47;2.67;;;0.60;;
18857;SDS011;9558;50.178;8.370;2023-09-19T11:47:37;2.55;;;0.80;;
18857;SDS011;9558;50.178;8.370;2023-09-19T11:50:25;4.32;;;0.93;;
18857;SDS011;9558;50.178;8.370;2023-09-19T11:53:14;2.22;;;0.60;;
18857;SDS011;9558;50.178;8.370;2023-09-19T11:56:04;5.07;;;1.00;;
18857;SDS011;9558;50.178;8.370;2023-09-19T11:58:55;3.75;;;0.70;;
18857;SDS011;9558;50.178;8.370;2023-09-19T12:01:43;5.10;;;0.80;;
18857;SDS011;9558;50.178;8.370;2023-09-19T12:04:40;3.58;;;0.77;;
18857;SDS011;9558;50.178;8.370;2023-09-19T12:07:28;3.92;;;0.75;;
18857;SDS011;9558;50.178;8.370;2023-09-19T12:10:17;4.00;;;1.45;;
18857;SDS011;9558;50.178;8.370;2023-09-19T12:13:07;4.22;;;0.50;;
18857;SDS011;9558;50.178;8.370;2023-09-19T12:15:55;3.42;;;0.88;;
18857;SDS011;9558;50.178;8.370;2023-09-19T12:18:45;3.35;;;0.95;;
18857;SDS011;9558;50.178;8.370;2023-09-19T12:21:33;4.05;;;0.98;;
18857;SDS011;9558;50.178;8.370;2023-09-19T12:24:22;1.95;;;0.75;;
18857;SDS011;9558;50.178;8.370;2023-09-19T12:27:13;2.17;;;0.65;;
18857;SDS011;9558;50.178;8.370;2023-09-19T12:30:00;2.20;;;0.70;;
18857;SDS011;9558;50.178;8.370;2023-09-19T12:32:51;5.70;;;0.80;;
18857;SDS011;9558;50.178;8.370;2023-09-19T12:35:38;5.47;;;1.02;;
18857;SDS011;9558;50.178;8.370;2023-09-19T12:38:25;3.20;;;0.70;;
18857;SDS011;9558;50.178;8.370;2023-09-19T12:41:14;3.25;;;0.65;;
18857;SDS011;9558;50.178;8.370;2023-09-19T12:44:02;3.75;;;0.90;;
18857;SDS011;9558;50.178;8.370;2023-09-19T12:46:54;2.30;;;0.65;;
18857;SDS011;9558;50.178;8.370;2023-09-19T12:53:00;3.03;;;0.60;;
18857;SDS011;9558;50.178;8.370;2023-09-19T12:55:47;4.15;;;0.70;;
18857;SDS011;9558;50.178;8.370;2023-09-19T12:58:48;3.92;;;0.65;;
18857;SDS011;9558;50.178;8.370;2023-09-19T13:01:37;2.38;;;0.75;;
18857;SDS011;9558;50.178;8.370;2023-09-19T13:04:28;2.10;;;0.75;;
18857;SDS011;9558;50.178;8.370;2023-09-19T13:10:32;3.00;;;0.65;;
18857;SDS011;9558;50.178;8.370;2023-09-19T13:13:24;1.63;;;0.60;;
18857;SDS011;9558;50.178;8.370;2023-09-19T13:16:14;2.80;;;0.90;;
18857;SDS011;9558;50.178;8.370;2023-09-19T13:19:06;2.88;;;0.52;;
18857;SDS011;9558;50.178;8.370;2023-09-19T13:21:54;2.35;;;0.60;;
18857;SDS011;9558;50.178;8.370;2023-09-19T13:24:43;1.65;;;0.60;;
18857;SDS011;9558;50.178;8.370;2023-09-19T13:27:29;2.28;;;0.45;;
18857;SDS011;9558;50.178;8.370;2023-09-19T13:30:16;6.85;;;0.68;;
18857;SDS011;9558;50.178;8.370;2023-09-19T13:33:04;2.90;;;0.70;;
18857;SDS011;9558;50.178;8.370;2023-09-19T13:35:54;1.33;;;0.75;;
18857;SDS011;9558;50.178;8.370;2023-09-19T13:38:42;4.22;;;0.85;;
18857;SDS011;9558;50.178;8.370;2023-09-19T13:41:29;8.20;;;0.65;;
18857;SDS011;9558;50.178;8.370;2023-09-19T13:44:17;0.90;;;0.40;;
18857;SDS011;9558;50.178;8.370;2023-09-19T13:47:04;2.90;;;0.60;;
18857;SDS011;9558;50.178;8.370;2023-09-19T13:49:55;4.70;;;0.70;;
18857;SDS011;9558;50.178;8.370;2023-09-19T13:52:43;3.35;;;0.60;;
18857;SDS011;9558;50.178;8.370;2023-09-19T13:55:32;3.47;;;0.70;;
18857;SDS011;9558;50.178;8.370;2023-09-19T13:58:19;3.90;;;0.60;;
18857;SDS011;9558;50.178;8.370;2023-09-19T14:01:06;5.05;;;0.68;;
18857;SDS011;9558;50.178;8.370;2023-09-19T14:03:57;4.65;;;0.80;;
18857;SDS011;9558;50.178;8.370;2023-09-19T14:06:44;2.72;;;0.70;;
18857;SDS011;9558;50.178;8.370;2023-09-19T14:09:33;0.93;;;0.50;;
18857;SDS011;9558;50.178;8.370;2023-09-19T14:12:20;2.67;;;0.45;;
18857;SDS011;9558;50.178;8.370;2023-09-19T14:15:07;1.73;;;0.43;;
18857;SDS011;9558;50.178;8.370;2023-09-19T14:17:56;2.42;;;0.70;;
18857;SDS011;9558;50.178;8.370;2023-09-19T14:20:44;3.63;;;0.60;;
18857;SDS011;9558;50.178;8.370;2023-09-19T14:23:34;2.45;;;0.50;;
18857;SDS011;9558;50.178;8.370;2023-09-19T14:26:23;1.50;;;0.80;;
18857;SDS011;9558;50.178;8.370;2023-09-19T14:29:10;1.63;;;0.60;;
18857;SDS011;9558;50.178;8.370;2023-09-19T14:31:57;5.35;;;0.70;;
18857;SDS011;9558;50.178;8.370;2023-09-19T14:34:43;2.53;;;0.73;;
18857;SDS011;9558;50.178;8.370;2023-09-19T14:37:31;2.40;;;0.70;;
18857;SDS011;9558;50.178;8.370;2023-09-19T14:40:18;1.42;;;0.47;;
18857;SDS011;9558;50.178;8.370;2023-09-19T14:43:09;4.10;;;0.80;;
18857;SDS011;9558;50.178;8.370;2023-09-19T14:45:56;1.20;;;0.50;;
18857;SDS011;9558;50.178;8.370;2023-09-19T14:48:43;1.92;;;0.70;;
18857;SDS011;9558;50.178;8.370;2023-09-19T14:51:32;1.42;;;0.63;;
18857;SDS011;9558;50.178;8.370;2023-09-19T14:54:21;4.05;;;0.57;;
18857;SDS011;9558;50.178;8.370;2023-09-19T14:57:09;3.70;;;0.80;;
18857;SDS011;9558;50.178;8.370;2023-09-19T14:59:57;2.85;;;0.50;;
18857;SDS011;9558;50.178;8.370;2023-09-19T15:02:45;2.25;;;0.63;;
18857;SDS011;9558;50.178;8.370;2023-09-19T15:05:35;1.55;;;0.50;;
18857;SDS011;9558;50.178;8.370;2023-09-19T15:08:22;3.42;;;0.70;;
18857;SDS011;9558;50.178;8.370;2023-09-19T15:11:09;5.32;;;0.88;;
18857;SDS011;9558;50.178;8.370;2023-09-19T15:13:58;4.60;;;0.82;;
18857;SDS011;9558;50.178;8.370;2023-09-19T15:16:46;3.90;;;0.63;;
18857;SDS011;9558;50.178;8.370;2023-09-19T15:19:33;3.83;;;0.82;;
18857;SDS011;9558;50.178;8.370;2023-09-19T15:22:20;2.00;;;0.47;;
18857;SDS011;9558;50.178;8.370;2023-09-19T15:25:08;3.38;;;0.63;;
18857;SDS011;9558;50.178;8.370;2023-09-19T15:27:55;0.82;;;0.43;;
18857;SDS011;9558;50.178;8.370;2023-09-19T15:30:43;3.00;;;0.60;;
18857;SDS011;9558;50.178;8.370;2023-09-19T15:33:31;2.13;;;0.52;;
18857;SDS011;9558;50.178;8.370;2023-09-19T15:36:18;2.90;;;0.77;;
18857;SDS011;9558;50.178;8.370;2023-09-19T15:39:06;2.22;;;0.43;;
18857;SDS011;9558;50.178;8.370;2023-09-19T15:41:56;2.25;;;0.50;;
18857;SDS011;9558;50.178;8.370;2023-09-19T15:44:43;2.42;;;0.80;;
18857;SDS011;9558;50.178;8.370;2023-09-19T15:47:32;1.40;;;0.47;;
18857;SDS011;9558;50.178;8.370;2023-09-19T15:50:21;1.48;;;0.63;;
18857;SDS011;9558;50.178;8.370;2023-09-19T15:53:07;2.63;;;0.60;;
18857;SDS011;9558;50.178;8.370;2023-09-19T15:55:55;0.70;;;0.40;;
18857;SDS011;9558;50.178;8.370;2023-09-19T15:58:43;2.47;;;0.45;;
18857;SDS011;9558;50.178;8.370;2023-09-19T16:01:31;1.17;;;0.30;;
18857;SDS011;9558;50.178;8.370;2023-09-19T16:04:18;1.95;;;0.43;;
18857;SDS011;9558;50.178;8.370;2023-09-19T16:07:06;3.85;;;0.60;;
18857;SDS011;9558;50.178;8.370;2023-09-19T16:09:54;3.28;;;0.50;;
18857;SDS011;9558;50.178;8.370;2023-09-19T16:12:41;1.30;;;0.22;;
18857;SDS011;9558;50.178;8.370;2023-09-19T16:15:28;1.55;;;0.47;;
18857;SDS011;9558;50.178;8.370;2023-09-19T16:18:15;2.20;;;0.47;;
18857;SDS011;9558;50.178;8.370;2023-09-19T16:21:02;3.05;;;0.52;;
18857;SDS011;9558;50.178;8.370;2023-09-19T16:23:51;1.02;;;0.35;;
18857;SDS011;9558;50.178;8.370;2023-09-19T16:26:39;1.45;;;0.50;;
18857;SDS011;9558;50.178;8.370;2023-09-19T16:29:26;5.80;;;0.63;;
18857;SDS011;9558;50.178;8.370;2023-09-19T16:32:13;3.17;;;0.73;;
18857;SDS011;9558;50.178;8.370;2023-09-19T16:35:00;1.48;;;0.40;;
18857;SDS011;9558;50.178;8.370;2023-09-19T16:37:47;0.90;;;0.32;;
18857;SDS011;9558;50.178;8.370;2023-09-19T16:40:35;3.60;;;0.45;;
18857;SDS011;9558;50.178;8.370;2023-09-19T16:43:23;2.55;;;0.63;;
18857;SDS011;9558;50.178;8.370;2023-09-19T16:46:10;4.53;;;0.57;;
18857;SDS011;9558;50.178;8.370;2023-09-19T16:49:01;2.65;;;0.45;;
18857;SDS011;9558;50.178;8.370;2023-09-19T16:51:49;3.08;;;0.40;;
18857;SDS011;9558;50.178;8.370;2023-09-19T16:54:35;1.85;;;0.77;;
18857;SDS011;9558;50.178;8.370;2023-09-19T16:57:25;1.38;;;0.52;;
18857;SDS011;9558;50.178;8.370;2023-09-19T17:00:12;3.60;;;0.40;;
18857;SDS011;9558;50.178;8.370;2023-09-19T17:03:03;0.73;;;0.40;;
18857;SDS011;9558;50.178;8.370;2023-09-19T17:05:50;2.15;;;0.65;;
18857;SDS011;9558;50.178;8.370;2023-09-19T17:08:37;0.38;;;0.20;;
18857;SDS011;9558;50.178;8.370;2023-09-19T17:11:25;0.98;;;0.50;;
18857;SDS011;9558;50.178;8.370;2023-09-19T17:14:13;0.98;;;0.60;;
18857;SDS011;9558;50.178;8.370;2023-09-19T17:17:00;2.75;;;0.50;;
18857;SDS011;9558;50.178;8.370;2023-09-19T17:19:48;5.55;;;0.38;;
18857;SDS011;9558;50.178;8.370;2023-09-19T17:22:34;1.20;;;0.43;;
18857;SDS011;9558;50.178;8.370;2023-09-19T17:25:21;1.63;;;0.55;;
18857;SDS011;9558;50.178;8.370;2023-09-19T17:28:10;1.58;;;0.30;;
18857;SDS011;9558;50.178;8.370;2023-09-19T17:30:58;5.60;;;0.68;;